createdAt,value
2023-04-13T00:00:38.656Z,79.10
2023-04-13T00:03:05.660Z,79.00
2023-04-13T00:05:34.462Z,79.10
2023-04-13T00:08:03.463Z,79.20
2023-04-13T00:10:37.077Z,79.30
2023-04-13T00:13:05.250Z,79.30
2023-04-13T00:15:32.623Z,79.40
2023-04-13T00:17:59.666Z,79.40
2023-04-13T00:20:26.463Z,79.50
2023-04-13T00:22:53.829Z,79.50
2023-04-13T00:25:20.603Z,79.60
2023-04-13T00:27:49.901Z,79.80
2023-04-13T00:30:18.136Z,79.90
2023-04-13T00:32:45.286Z,79.90
2023-04-13T00:35:15.001Z,80.00
2023-04-13T00:37:43.169Z,80.10
2023-04-13T00:40:10.878Z,80.20
2023-04-13T00:42:37.631Z,80.30
2023-04-13T00:45:04.800Z,80.30
2023-04-13T00:47:32.327Z,80.40
2023-04-13T00:50:01.509Z,80.40
2023-04-13T00:52:28.971Z,80.50
2023-04-13T00:54:57.434Z,80.40
2023-04-13T00:57:25.381Z,80.00
2023-04-13T00:59:52.838Z,79.60
2023-04-13T01:02:26.449Z,79.40
2023-04-13T01:04:54.904Z,79.40
2023-04-13T01:07:59.381Z,79.40
2023-04-13T01:10:46.924Z,79.30
2023-04-13T01:13:42.012Z,79.30
2023-04-13T01:16:14.548Z,79.30
2023-04-13T01:18:41.804Z,79.20
2023-04-13T01:21:12.037Z,79.30
2023-04-13T01:23:51.496Z,79.40
2023-04-13T01:26:19.000Z,79.70
2023-04-13T01:28:45.664Z,79.60
2023-04-13T01:31:12.464Z,79.80
2023-04-13T01:33:40.643Z,79.90
2023-04-13T01:36:08.683Z,79.90
2023-04-13T01:38:35.658Z,79.90
2023-04-13T01:41:03.727Z,80.00
2023-04-13T01:43:30.696Z,80.10
2023-04-13T01:46:05.660Z,80.40
2023-04-13T01:48:47.252Z,80.30
2023-04-13T01:51:16.492Z,80.40
2023-04-13T01:53:57.311Z,80.50
2023-04-13T01:56:24.099Z,80.50
2023-04-13T01:58:53.509Z,80.60
2023-04-13T02:01:21.777Z,80.60
2023-04-13T02:03:49.046Z,80.50
2023-04-13T02:06:16.394Z,80.50
2023-04-13T02:08:43.057Z,80.60
2023-04-13T02:11:10.202Z,80.10
2023-04-13T02:13:36.923Z,79.70
2023-04-13T02:16:04.183Z,79.50
2023-04-13T02:18:31.016Z,79.40
2023-04-13T02:21:09.292Z,79.40
2023-04-13T02:23:36.864Z,79.30
2023-04-13T02:26:04.563Z,79.30
2023-04-13T02:28:31.252Z,79.20
2023-04-13T02:30:59.911Z,79.00
2023-04-13T02:33:32.786Z,79.00
2023-04-13T02:36:00.220Z,79.20
2023-04-13T02:38:30.468Z,79.70
2023-04-13T02:41:00.981Z,81.00
2023-04-13T02:43:27.771Z,80.50
2023-04-13T02:45:54.897Z,80.60
2023-04-13T02:48:22.567Z,80.70
2023-04-13T02:50:49.634Z,80.80
2023-04-13T02:53:16.818Z,80.70
2023-04-13T02:55:43.598Z,80.80
2023-04-13T02:58:10.836Z,80.70
2023-04-13T03:00:38.636Z,80.70
2023-04-13T03:03:07.104Z,80.70
2023-04-13T03:05:33.977Z,80.80
2023-04-13T03:08:00.623Z,80.70
2023-04-13T03:10:27.367Z,80.80
2023-04-13T03:12:55.641Z,80.80
2023-04-13T03:15:23.362Z,80.70
2023-04-13T03:17:50.609Z,80.70
2023-04-13T03:20:20.673Z,80.70
2023-04-13T03:22:47.340Z,81.60
2023-04-13T03:25:14.058Z,80.80
2023-04-13T03:27:41.000Z,81.50
2023-04-13T03:30:08.849Z,79.90
2023-04-13T03:32:35.743Z,79.90
2023-04-13T03:35:02.594Z,79.50
2023-04-13T03:37:32.465Z,79.50
2023-04-13T03:39:59.275Z,79.30
2023-04-13T03:42:26.676Z,79.40
2023-04-13T03:44:53.438Z,79.30
2023-04-13T03:47:20.389Z,79.30
2023-04-13T03:49:47.485Z,79.30
2023-04-13T03:52:14.438Z,79.30
2023-04-13T03:54:41.545Z,79.60
2023-04-13T03:57:08.329Z,80.00
2023-04-13T03:59:35.224Z,80.10
2023-04-13T04:02:03.058Z,80.30
2023-04-13T04:04:30.047Z,80.40
2023-04-13T04:06:58.537Z,80.60
2023-04-13T04:09:25.668Z,80.70
2023-04-13T04:11:52.447Z,80.80
2023-04-13T04:14:20.456Z,80.90
2023-04-13T04:16:47.294Z,81.00
2023-04-13T04:19:14.141Z,81.00
2023-04-13T04:21:47.132Z,81.20
2023-04-13T04:24:22.453Z,81.20
2023-04-13T04:26:50.019Z,81.20
2023-04-13T04:29:22.476Z,81.30
2023-04-13T04:31:53.430Z,81.30
2023-04-13T04:34:20.681Z,81.50
2023-04-13T04:36:50.553Z,81.50
2023-04-13T04:39:22.114Z,81.30
2023-04-13T04:41:55.232Z,81.30
2023-04-13T04:44:25.335Z,81.10
2023-04-13T04:46:52.602Z,80.70
2023-04-13T04:49:21.650Z,80.70
2023-04-13T04:51:52.067Z,80.90
2023-04-13T04:54:19.746Z,80.50
2023-04-13T04:56:47.413Z,80.40
2023-04-13T04:59:14.437Z,80.50
2023-04-13T05:01:43.128Z,80.40
2023-04-13T05:04:10.399Z,80.30
2023-04-13T05:06:37.832Z,81.10
2023-04-13T05:09:05.877Z,80.20
2023-04-13T05:11:32.774Z,80.30
2023-04-13T05:14:00.838Z,80.60
2023-04-13T05:16:30.521Z,80.70
2023-04-13T05:18:58.900Z,80.60
2023-04-13T05:21:27.096Z,80.30
2023-04-13T05:23:54.454Z,80.50
2023-04-13T05:26:21.201Z,80.50
2023-04-13T05:28:47.925Z,80.40
2023-04-13T05:31:15.774Z,80.10
2023-04-13T05:33:42.536Z,80.20
2023-04-13T05:36:09.877Z,80.30
2023-04-13T05:38:36.657Z,80.00
2023-04-13T05:41:03.468Z,79.90
2023-04-13T05:43:30.602Z,79.90
2023-04-13T05:45:58.518Z,80.00
2023-04-13T05:48:25.600Z,79.90
2023-04-13T05:50:58.689Z,79.60
2023-04-13T05:53:26.137Z,79.20
2023-04-13T05:55:53.158Z,79.30
2023-04-13T05:58:20.223Z,79.20
2023-04-13T06:00:46.988Z,79.90
2023-04-13T06:03:15.696Z,79.80
2023-04-13T06:05:43.321Z,79.60
2023-04-13T06:08:10.535Z,79.70
2023-04-13T06:10:37.683Z,79.80
2023-04-13T06:13:04.449Z,79.50
2023-04-13T06:15:31.727Z,79.30
2023-04-13T06:18:00.136Z,79.30
2023-04-13T06:20:27.158Z,79.40
2023-04-13T06:22:53.865Z,79.40
2023-04-13T06:25:20.977Z,79.20
2023-04-13T06:27:48.961Z,79.10
2023-04-13T06:30:15.771Z,79.60
2023-04-13T06:32:42.585Z,80.20
2023-04-13T06:35:10.904Z,79.50
2023-04-13T06:37:39.033Z,80.60
2023-04-13T06:40:14.608Z,80.10
2023-04-13T06:42:41.690Z,80.10
2023-04-13T06:45:11.857Z,82.20
2023-04-13T06:47:42.043Z,81.50
2023-04-13T06:50:10.147Z,81.30
2023-04-13T06:52:37.467Z,80.90
2023-04-13T06:55:04.858Z,80.70
2023-04-13T06:57:31.598Z,89.40
2023-04-13T06:59:59.933Z,82.80
2023-04-13T07:02:27.015Z,82.30
2023-04-13T07:04:54.920Z,81.70
2023-04-13T07:07:21.662Z,81.20
2023-04-13T07:09:48.595Z,81.10
2023-04-13T07:12:15.662Z,82.10
2023-04-13T07:14:42.580Z,82.30
2023-04-13T07:17:11.273Z,82.40
2023-04-13T07:19:39.497Z,82.30
2023-04-13T07:22:06.233Z,82.80
2023-04-13T07:24:34.106Z,83.60
2023-04-13T07:27:01.318Z,83.20
2023-04-13T07:29:29.324Z,82.80
2023-04-13T07:32:03.692Z,83.20
2023-04-13T07:34:30.824Z,83.00
2023-04-13T07:36:57.833Z,83.50
2023-04-13T07:39:25.077Z,83.10
2023-04-13T07:41:51.853Z,83.60
2023-04-13T07:44:18.600Z,83.40
2023-04-13T07:46:45.488Z,83.60
2023-04-13T07:49:12.205Z,83.40
2023-04-13T07:51:38.961Z,83.20
2023-04-13T07:54:05.773Z,83.40
2023-04-13T07:56:32.539Z,82.90
2023-04-13T07:59:01.276Z,83.10
2023-04-13T08:01:28.589Z,82.70
2023-04-13T08:03:55.505Z,82.60
2023-04-13T08:06:23.337Z,82.50
2023-04-13T08:08:50.065Z,82.60
2023-04-13T08:11:16.876Z,82.40
2023-04-13T08:13:43.655Z,82.40
2023-04-13T08:16:11.117Z,82.30
2023-04-13T08:18:38.401Z,83.10
2023-04-13T08:21:11.271Z,82.10
2023-04-13T08:23:42.402Z,81.90
2023-04-13T08:26:19.244Z,81.90
2023-04-13T08:28:47.663Z,81.70
2023-04-13T08:31:15.675Z,81.50
2023-04-13T08:33:43.201Z,81.40
2023-04-13T08:36:09.948Z,81.30
2023-04-13T08:38:37.013Z,81.30
2023-04-13T08:41:03.874Z,81.30
2023-04-13T08:43:33.024Z,81.10
2023-04-13T08:46:02.611Z,81.10
2023-04-13T08:48:42.318Z,80.70
2023-04-13T08:51:14.605Z,80.70
2023-04-13T08:53:41.397Z,80.60
2023-04-13T08:56:10.204Z,80.60
2023-04-13T08:58:38.183Z,80.50
2023-04-13T09:01:06.397Z,80.10
2023-04-13T09:03:36.009Z,79.80
2023-04-13T09:06:05.227Z,79.80
2023-04-13T09:08:35.663Z,79.80
2023-04-13T09:11:03.781Z,79.60
2023-04-13T09:13:31.327Z,79.30
2023-04-13T09:15:58.356Z,79.30
2023-04-13T09:18:25.225Z,79.20
2023-04-13T09:21:00.479Z,79.00
2023-04-13T09:23:27.301Z,78.90
2023-04-13T09:26:09.205Z,79.00
2023-04-13T09:28:46.846Z,78.80
2023-04-13T09:31:13.882Z,78.90
2023-04-13T09:33:52.002Z,78.70
2023-04-13T09:36:20.580Z,78.60
2023-04-13T09:38:55.154Z,78.40
2023-04-13T09:41:29.967Z,78.40
2023-04-13T09:43:56.899Z,78.90
2023-04-13T09:46:23.688Z,88.10
2023-04-13T09:49:02.120Z,84.00
2023-04-13T09:51:39.737Z,81.90
2023-04-13T09:54:06.879Z,81.30
2023-04-13T09:56:52.755Z,81.40
2023-04-13T09:59:19.687Z,81.00
2023-04-13T10:01:46.721Z,81.00
2023-04-13T10:04:13.557Z,80.90
2023-04-13T10:06:40.844Z,81.00
2023-04-13T10:09:07.980Z,80.90
2023-04-13T10:11:39.755Z,80.90
2023-04-13T10:14:09.278Z,80.70
2023-04-13T10:16:54.294Z,80.70
2023-04-13T10:19:23.368Z,81.50
2023-04-13T10:21:51.871Z,81.20
2023-04-13T10:24:19.445Z,81.10
2023-04-13T10:26:46.117Z,81.30
2023-04-13T10:29:14.670Z,81.30
2023-04-13T10:31:48.698Z,81.20
2023-04-13T10:34:26.450Z,81.20
2023-04-13T10:36:56.060Z,81.50
2023-04-13T10:39:27.644Z,81.60
2023-04-13T10:42:08.594Z,81.40
2023-04-13T10:44:46.056Z,82.60
2023-04-13T10:47:13.650Z,83.60
2023-04-13T10:49:40.994Z,82.30
2023-04-13T10:52:09.067Z,82.30
2023-04-13T10:54:35.766Z,81.90
2023-04-13T10:57:04.616Z,81.50
2023-04-13T10:59:57.961Z,82.20
2023-04-13T11:02:32.022Z,82.40
2023-04-13T11:05:01.594Z,82.30
2023-04-13T11:07:29.396Z,82.30
2023-04-13T11:12:28.609Z,81.80
2023-04-13T11:14:55.788Z,81.70
2023-04-13T11:17:23.056Z,81.60
2023-04-13T11:19:51.536Z,81.60
2023-04-13T11:22:19.222Z,81.60
2023-04-13T11:24:46.202Z,81.60
2023-04-13T11:27:25.431Z,82.40
2023-04-13T11:29:58.941Z,81.50
2023-04-13T11:32:26.375Z,81.80
2023-04-13T11:34:53.185Z,81.70
2023-04-13T11:37:20.178Z,81.70
2023-04-13T11:39:46.880Z,81.70
2023-04-13T11:42:13.646Z,81.80
2023-04-13T11:44:42.689Z,81.80
2023-04-13T11:47:13.112Z,81.60
2023-04-13T11:49:41.743Z,81.70
2023-04-13T11:52:08.413Z,81.30
2023-04-13T11:54:35.164Z,81.30
2023-04-13T11:57:02.481Z,81.60
2023-04-13T11:59:29.222Z,81.40
2023-04-13T12:02:02.854Z,81.70
2023-04-13T12:04:39.079Z,81.70
2023-04-13T12:07:14.154Z,82.50
2023-04-13T12:09:55.941Z,82.90
2023-04-13T12:15:15.384Z,85.20
2023-04-13T12:20:24.801Z,82.90
2023-04-13T12:23:00.176Z,86.00
2023-04-13T12:25:35.865Z,92.20
2023-04-13T12:28:03.733Z,87.60
2023-04-13T12:30:30.486Z,86.60
2023-04-13T12:32:57.502Z,85.80
2023-04-13T12:35:24.366Z,86.30
2023-04-13T12:37:52.465Z,86.20
2023-04-13T12:40:19.317Z,86.20
2023-04-13T12:42:46.595Z,85.60
2023-04-13T12:45:14.099Z,85.60
2023-04-13T12:47:41.575Z,85.30
2023-04-13T12:50:09.635Z,85.20
2023-04-13T12:52:37.297Z,85.60
2023-04-13T12:55:05.214Z,85.00
2023-04-13T12:57:33.512Z,84.90
2023-04-13T13:00:00.361Z,84.10
2023-04-13T13:02:29.874Z,84.00
2023-04-13T13:04:57.266Z,83.70
2023-04-13T13:07:24.067Z,83.70
2023-04-13T13:09:51.494Z,83.30
2023-04-13T13:12:18.669Z,83.50
2023-04-13T13:14:45.428Z,83.30
2023-04-13T13:17:12.183Z,83.30
2023-04-13T13:19:38.926Z,83.30
2023-04-13T13:22:06.184Z,83.30
2023-04-13T13:24:34.027Z,83.40
2023-04-13T13:27:37.475Z,83.40
2023-04-13T13:29:47.757Z,84.20
2023-04-13T13:32:14.649Z,83.40
2023-04-13T13:34:41.443Z,83.30
2023-04-13T13:37:08.804Z,83.50
2023-04-13T13:39:37.382Z,83.30
2023-04-13T13:42:05.137Z,83.30
2023-04-13T13:44:32.154Z,83.30
2023-04-13T13:46:59.065Z,83.10
2023-04-13T13:49:25.843Z,82.80
2023-04-13T13:51:52.853Z,82.50
2023-04-13T13:54:20.508Z,82.50
2023-04-13T13:56:47.224Z,83.40
2023-04-13T13:59:14.043Z,82.70
2023-04-13T14:01:41.164Z,82.70
2023-04-13T14:04:08.046Z,82.50
2023-04-13T14:06:35.657Z,82.20
2023-04-13T14:09:02.614Z,82.10
2023-04-13T14:11:29.903Z,82.20
2023-04-13T14:13:56.557Z,82.60
2023-04-13T14:16:23.599Z,82.40
2023-04-13T14:18:50.560Z,82.20
2023-04-13T14:21:21.374Z,82.40
2023-04-13T14:23:49.761Z,83.30
2023-04-13T14:26:16.716Z,85.30
2023-04-13T14:28:43.763Z,85.60
2023-04-13T14:31:10.554Z,84.10
2023-04-13T14:33:42.105Z,83.20
2023-04-13T14:36:11.042Z,82.00
2023-04-13T14:38:38.742Z,76.80
2023-04-13T14:41:05.986Z,76.30
2023-04-13T14:43:32.643Z,74.00
2023-04-13T14:45:59.415Z,72.20
2023-04-13T14:48:26.402Z,74.00
2023-04-13T14:50:53.275Z,75.20
2023-04-13T14:53:20.070Z,76.70
2023-04-13T14:55:47.391Z,76.60
2023-04-13T14:58:14.124Z,76.40
2023-04-13T15:00:41.186Z,74.60
2023-04-13T15:03:09.496Z,74.60
2023-04-13T15:05:47.332Z,75.30
2023-04-13T15:08:16.676Z,75.40
2023-04-13T15:10:43.429Z,75.70
2023-04-13T15:13:10.371Z,75.60
2023-04-13T15:15:37.344Z,75.90
2023-04-13T15:18:04.378Z,76.90
2023-04-13T15:20:31.490Z,76.00
2023-04-13T15:22:58.388Z,76.10
2023-04-13T15:25:25.487Z,76.20
2023-04-13T15:27:53.069Z,76.30
2023-04-13T15:30:28.147Z,76.30
2023-04-13T15:33:04.533Z,76.40
2023-04-13T15:35:31.876Z,76.50
2023-04-13T15:38:00.980Z,76.20
2023-04-13T15:40:29.049Z,76.30
2023-04-13T15:42:55.749Z,76.20
2023-04-13T15:45:22.546Z,76.20
2023-04-13T15:47:49.308Z,76.30
2023-04-13T15:50:17.463Z,76.50
2023-04-13T15:52:44.235Z,76.50
2023-04-13T15:55:12.129Z,77.40
2023-04-13T15:57:38.877Z,76.70
2023-04-13T16:00:08.882Z,77.60
2023-04-13T16:02:36.530Z,77.70
2023-04-13T16:05:03.642Z,77.10
2023-04-13T16:07:30.482Z,77.10
2023-04-13T16:09:58.399Z,76.80
2023-04-13T16:12:32.977Z,76.50
2023-04-13T16:14:59.871Z,76.60
2023-04-13T16:17:33.551Z,76.20
2023-04-13T16:20:14.530Z,76.10
2023-04-13T16:22:43.079Z,76.80
2023-04-13T16:25:15.244Z,76.00
2023-04-13T16:27:44.016Z,84.70
2023-04-13T16:30:13.209Z,84.70
2023-04-13T16:35:41.782Z,84.90
2023-04-13T16:38:08.453Z,81.70
2023-04-13T16:40:35.993Z,81.10
2023-04-13T16:43:03.878Z,82.90
2023-04-13T16:45:30.608Z,83.50
2023-04-13T16:47:57.389Z,88.70
2023-04-13T16:50:30.289Z,85.70
2023-04-13T16:52:58.166Z,84.10
2023-04-13T16:55:26.808Z,83.50
2023-04-13T16:57:53.545Z,82.90
2023-04-13T17:00:20.730Z,83.30
2023-04-13T17:02:47.860Z,82.80
2023-04-13T17:05:17.052Z,83.30
2023-04-13T17:07:51.290Z,83.20
2023-04-13T17:10:26.694Z,83.50
2023-04-13T17:12:53.378Z,83.00
2023-04-13T17:15:20.481Z,83.00
2023-04-13T17:17:51.563Z,83.00
2023-04-13T17:20:18.598Z,83.40
2023-04-13T17:23:04.617Z,85.00
2023-04-13T17:25:31.599Z,87.20
2023-04-13T17:27:58.265Z,87.00
2023-04-13T17:30:24.951Z,84.70
2023-04-13T17:32:51.657Z,84.30
2023-04-13T17:35:18.611Z,84.40
2023-04-13T17:37:51.245Z,84.00
2023-04-13T17:40:24.099Z,84.00
2023-04-13T17:42:50.932Z,84.30
2023-04-13T17:45:19.438Z,84.00
2023-04-13T17:47:48.175Z,84.70
2023-04-13T17:50:14.900Z,87.80
2023-04-13T17:52:42.137Z,85.70
2023-04-13T17:55:12.083Z,87.40
2023-04-13T17:57:48.519Z,91.50
2023-04-13T18:00:28.325Z,90.40
2023-04-13T18:03:00.713Z,89.50
2023-04-13T18:05:29.436Z,89.40
2023-04-13T18:08:03.777Z,88.40
2023-04-13T18:10:31.067Z,87.50
2023-04-13T18:12:59.918Z,88.80
2023-04-13T18:15:26.865Z,88.90
2023-04-13T18:17:53.604Z,87.80
2023-04-13T18:20:21.003Z,88.80
2023-04-13T18:22:48.703Z,87.50
2023-04-13T18:25:15.678Z,87.20
2023-04-13T18:27:42.897Z,86.90
2023-04-13T18:30:11.241Z,87.00
2023-04-13T18:32:38.093Z,86.90
2023-04-13T18:35:04.969Z,86.40
2023-04-13T18:37:31.690Z,93.80
2023-04-13T18:39:58.578Z,92.40
2023-04-13T18:42:26.068Z,89.90
2023-04-13T18:44:52.813Z,93.40
2023-04-13T18:47:27.774Z,91.30
2023-04-13T18:49:54.992Z,89.30
2023-04-13T18:52:23.659Z,88.60
2023-04-13T18:54:52.188Z,87.40
2023-04-13T18:57:19.996Z,86.90
2023-04-13T18:59:47.188Z,87.40
2023-04-13T19:02:15.135Z,85.90
2023-04-13T19:04:42.143Z,85.30
2023-04-13T19:07:08.892Z,84.50
2023-04-13T19:09:39.347Z,84.30
2023-04-13T19:12:06.600Z,84.60
2023-04-13T19:14:33.360Z,85.10
2023-04-13T19:17:00.196Z,83.90
2023-04-13T19:19:29.691Z,87.00
2023-04-13T19:21:56.404Z,85.90
2023-04-13T19:24:23.111Z,84.60
2023-04-13T19:26:50.681Z,85.50
2023-04-13T19:29:18.016Z,85.00
2023-04-13T19:31:45.274Z,84.70
2023-04-13T19:34:12.237Z,84.70
2023-04-13T19:36:39.070Z,84.80
2023-04-13T19:39:06.175Z,84.00
2023-04-13T19:41:33.227Z,83.90
2023-04-13T19:44:00.776Z,84.00
2023-04-13T19:46:28.690Z,83.70
2023-04-13T19:48:58.411Z,83.60
2023-04-13T19:51:28.794Z,83.90
2023-04-13T19:53:55.934Z,84.00
2023-04-13T19:56:23.406Z,83.90
2023-04-13T19:58:51.443Z,86.40
2023-04-13T20:01:18.492Z,86.60
2023-04-13T20:03:45.729Z,87.10
2023-04-13T20:06:12.562Z,86.40
2023-04-13T20:08:39.315Z,86.00
2023-04-13T20:11:06.298Z,85.60
2023-04-13T20:13:32.965Z,85.60
2023-04-13T20:15:59.666Z,85.40
2023-04-13T20:18:26.342Z,85.40
2023-04-13T20:20:53.629Z,85.40
2023-04-13T20:23:21.244Z,85.30
2023-04-13T20:25:48.451Z,85.20
2023-04-13T20:28:15.244Z,84.70
2023-04-13T20:30:42.014Z,84.60
2023-04-13T20:33:08.826Z,84.50
2023-04-13T20:35:35.564Z,84.30
2023-04-13T20:38:02.246Z,84.00
2023-04-13T20:40:28.928Z,83.50
2023-04-13T20:42:56.565Z,83.50
2023-04-13T20:45:24.574Z,83.10
2023-04-13T20:47:53.752Z,83.10
2023-04-13T20:50:26.999Z,83.00
2023-04-13T20:52:56.693Z,83.00
2023-04-13T20:55:25.018Z,83.30
2023-04-13T20:57:51.693Z,83.50
2023-04-13T21:00:19.270Z,83.60
2023-04-13T21:02:46.909Z,84.00
2023-04-13T21:05:13.910Z,84.00
2023-04-13T21:07:41.830Z,84.10
2023-04-13T21:10:09.364Z,84.20
2023-04-13T21:12:36.509Z,84.10
2023-04-13T21:15:06.716Z,84.90
2023-04-13T21:17:33.430Z,85.20
2023-04-13T21:20:00.809Z,85.80
2023-04-13T21:22:27.550Z,84.90
2023-04-13T21:24:55.366Z,84.70
2023-04-13T21:27:22.448Z,85.10
2023-04-13T21:29:49.200Z,85.00
2023-04-13T21:32:16.009Z,85.00
2023-04-13T21:34:42.792Z,85.10
2023-04-13T21:37:09.495Z,85.10
2023-04-13T21:39:36.184Z,85.10
2023-04-13T21:42:04.813Z,85.20
2023-04-13T21:44:31.540Z,85.10
2023-04-13T21:46:58.565Z,85.40
2023-04-13T21:49:25.582Z,85.40
2023-04-13T21:51:52.693Z,85.20
2023-04-13T21:54:19.405Z,85.10
2023-04-13T21:56:46.676Z,85.10
2023-04-13T21:59:13.369Z,85.10
2023-04-13T22:01:40.185Z,85.10
2023-04-13T22:04:07.115Z,85.10
2023-04-13T22:06:33.926Z,85.10
2023-04-13T22:09:00.934Z,85.10
2023-04-13T22:11:28.919Z,85.10
2023-04-13T22:13:55.692Z,85.60
2023-04-13T22:16:22.590Z,85.70
2023-04-13T22:18:49.502Z,85.90
2023-04-13T22:21:16.205Z,85.90
2023-04-13T22:23:42.929Z,86.00
2023-04-13T22:26:09.628Z,86.10
2023-04-13T22:28:36.356Z,86.10
2023-04-13T22:31:09.336Z,86.20
2023-04-13T22:33:36.436Z,86.30
2023-04-13T22:36:06.457Z,86.20
2023-04-13T22:38:33.142Z,86.20
2023-04-13T22:41:04.809Z,86.10
2023-04-13T22:43:31.482Z,86.00
2023-04-13T22:46:00.486Z,85.70
2023-04-13T22:48:31.348Z,85.40
2023-04-13T22:51:02.128Z,85.30
2023-04-13T22:53:29.947Z,85.30
2023-04-13T22:55:56.672Z,85.30
2023-04-13T22:58:23.501Z,85.20
2023-04-13T23:00:50.351Z,85.20
2023-04-13T23:03:17.196Z,85.40
2023-04-13T23:05:44.105Z,85.60
2023-04-13T23:08:10.959Z,85.80
2023-04-13T23:10:37.682Z,85.90
2023-04-13T23:13:04.740Z,86.00
2023-04-13T23:15:31.838Z,86.30
2023-04-13T23:17:58.691Z,86.40
2023-04-13T23:20:27.683Z,86.50
2023-04-13T23:22:54.358Z,86.50
2023-04-13T23:25:21.061Z,86.50
2023-04-13T23:27:47.808Z,86.50
2023-04-13T23:30:14.557Z,86.50
2023-04-13T23:32:41.329Z,86.50
2023-04-13T23:35:08.655Z,86.60
2023-04-13T23:37:35.486Z,86.50
2023-04-13T23:40:03.129Z,86.00
2023-04-13T23:42:29.919Z,85.90
2023-04-13T23:44:56.619Z,85.80
2023-04-13T23:47:23.282Z,85.90
2023-04-13T23:49:51.509Z,85.70
2023-04-13T23:52:18.850Z,85.80
2023-04-13T23:54:45.684Z,85.70
2023-04-13T23:57:12.728Z,85.70
2023-04-13T23:59:39.519Z,85.70
